sensor_id;sensor_type;location;lat;lon;timestamp;temperature;humidity
43641;DHT22;72791;52.546;13.570;2024-01-11T00:01:26;-8.20;99.90
43641;DHT22;72791;52.546;13.570;2024-01-11T00:04:54;-8.20;99.90
43641;DHT22;72791;52.546;13.570;2024-01-11T00:10:35;-8.10;99.90
43641;DHT22;72791;52.546;13.570;2024-01-11T00:13:07;-8.10;99.90
43641;DHT22;72791;52.546;13.570;2024-01-11T00:15:35;-8.10;99.90
43641;DHT22;72791;52.546;13.570;2024-01-11T00:18:02;-8.00;99.90
43641;DHT22;72791;52.546;13.570;2024-01-11T00:20:32;-8.00;99.90
43641;DHT22;72791;52.546;13.570;2024-01-11T00:22:59;-7.90;99.90
43641;DHT22;72791;52.546;13.570;2024-01-11T00:25:25;-7.90;99.90
43641;DHT22;72791;52.546;13.570;2024-01-11T00:27:55;-7.80;99.90
43641;DHT22;72791;52.546;13.570;2024-01-11T00:30:23;-7.80;99.90
43641;DHT22;72791;52.546;13.570;2024-01-11T00:32:52;-7.80;99.90
43641;DHT22;72791;52.546;13.570;2024-01-11T00:35:37;-7.70;99.90
43641;DHT22;72791;52.546;13.570;2024-01-11T00:38:03;-7.70;99.90
43641;DHT22;72791;52.546;13.570;2024-01-11T00:40:29;-7.60;99.90
43641;DHT22;72791;52.546;13.570;2024-01-11T00:42:54;-7.60;99.90
43641;DHT22;72791;52.546;13.570;2024-01-11T00:45:21;-7.50;99.90
43641;DHT22;72791;52.546;13.570;2024-01-11T00:47:47;-7.50;99.90
43641;DHT22;72791;52.546;13.570;2024-01-11T00:50:13;-7.50;99.90
43641;DHT22;72791;52.546;13.570;2024-01-11T00:52:38;-7.40;99.90
43641;DHT22;72791;52.546;13.570;2024-01-11T00:55:04;-7.50;99.90
43641;DHT22;72791;52.546;13.570;2024-01-11T00:57:33;-7.50;99.90
43641;DHT22;72791;52.546;13.570;2024-01-11T00:59:58;-7.50;99.90
43641;DHT22;72791;52.546;13.570;2024-01-11T01:02:24;-7.40;99.90
43641;DHT22;72791;52.546;13.570;2024-01-11T01:04:50;-7.40;99.90
43641;DHT22;72791;52.546;13.570;2024-01-11T01:07:15;-7.40;99.90
43641;DHT22;72791;52.546;13.570;2024-01-11T01:09:41;-7.40;99.90
43641;DHT22;72791;52.546;13.570;2024-01-11T01:12:06;-7.50;99.90
43641;DHT22;72791;52.546;13.570;2024-01-11T01:14:32;-7.40;99.90
43641;DHT22;72791;52.546;13.570;2024-01-11T01:16:58;-7.50;99.90
43641;DHT22;72791;52.546;13.570;2024-01-11T01:19:24;-7.50;99.90
43641;DHT22;72791;52.546;13.570;2024-01-11T01:21:50;-7.50;99.90
43641;DHT22;72791;52.546;13.570;2024-01-11T01:24:16;-7.50;99.90
43641;DHT22;72791;52.546;13.570;2024-01-11T01:26:41;-7.50;99.90
43641;DHT22;72791;52.546;13.570;2024-01-11T01:29:07;-7.50;99.90
43641;DHT22;72791;52.546;13.570;2024-01-11T01:31:33;-7.50;99.90
43641;DHT22;72791;52.546;13.570;2024-01-11T01:34:03;-7.50;99.90
43641;DHT22;72791;52.546;13.570;2024-01-11T01:36:29;-7.50;99.90
43641;DHT22;72791;52.546;13.570;2024-01-11T01:38:55;-7.40;99.90
43641;DHT22;72791;52.546;13.570;2024-01-11T01:41:21;-7.40;99.90
43641;DHT22;72791;52.546;13.570;2024-01-11T01:43:47;-7.40;99.90
43641;DHT22;72791;52.546;13.570;2024-01-11T01:46:15;-7.30;99.90
43641;DHT22;72791;52.546;13.570;2024-01-11T01:48:44;-7.30;99.90
43641;DHT22;72791;52.546;13.570;2024-01-11T01:51:13;-7.30;99.90
43641;DHT22;72791;52.546;13.570;2024-01-11T01:53:39;-7.30;99.90
43641;DHT22;72791;52.546;13.570;2024-01-11T01:56:06;-7.20;99.90
43641;DHT22;72791;52.546;13.570;2024-01-11T01:58:33;-7.20;99.90
43641;DHT22;72791;52.546;13.570;2024-01-11T02:00:59;-7.20;99.90
43641;DHT22;72791;52.546;13.570;2024-01-11T02:03:27;-7.20;99.90
43641;DHT22;72791;52.546;13.570;2024-01-11T02:05:55;-7.10;99.90
43641;DHT22;72791;52.546;13.570;2024-01-11T02:08:22;-7.10;99.90
43641;DHT22;72791;52.546;13.570;2024-01-11T02:10:49;-7.00;99.90
43641;DHT22;72791;52.546;13.570;2024-01-11T02:13:15;-7.00;99.90
43641;DHT22;72791;52.546;13.570;2024-01-11T02:15:41;-6.90;99.90
43641;DHT22;72791;52.546;13.570;2024-01-11T02:18:07;-6.80;99.90
43641;DHT22;72791;52.546;13.570;2024-01-11T02:20:32;-6.80;99.90
43641;DHT22;72791;52.546;13.570;2024-01-11T02:23:03;-6.80;99.90
43641;DHT22;72791;52.546;13.570;2024-01-11T02:25:31;-6.70;99.90
43641;DHT22;72791;52.546;13.570;2024-01-11T02:27:58;-6.60;99.90
43641;DHT22;72791;52.546;13.570;2024-01-11T02:30:25;-6.60;99.90
43641;DHT22;72791;52.546;13.570;2024-01-11T02:32:53;-6.50;99.90
43641;DHT22;72791;52.546;13.570;2024-01-11T02:35:21;-6.50;99.90
43641;DHT22;72791;52.546;13.570;2024-01-11T02:37:49;-6.40;99.90
43641;DHT22;72791;52.546;13.570;2024-01-11T02:40:15;-6.40;99.90
43641;DHT22;72791;52.546;13.570;2024-01-11T02:42:42;-6.30;99.90
43641;DHT22;72791;52.546;13.570;2024-01-11T02:45:10;-6.30;99.90
43641;DHT22;72791;52.546;13.570;2024-01-11T02:47:39;-6.20;99.90
43641;DHT22;72791;52.546;13.570;2024-01-11T02:50:07;-6.20;99.90
43641;DHT22;72791;52.546;13.570;2024-01-11T02:52:33;-6.20;99.90
43641;DHT22;72791;52.546;13.570;2024-01-11T02:54:59;-6.10;99.90
43641;DHT22;72791;52.546;13.570;2024-01-11T02:57:25;-6.10;99.90
43641;DHT22;72791;52.546;13.570;2024-01-11T02:59:51;-6.20;99.90
43641;DHT22;72791;52.546;13.570;2024-01-11T03:02:17;-6.10;99.90
43641;DHT22;72791;52.546;13.570;2024-01-11T03:04:43;-6.10;99.90
43641;DHT22;72791;52.546;13.570;2024-01-11T03:07:09;-6.10;99.90
43641;DHT22;72791;52.546;13.570;2024-01-11T03:09:35;-6.10;99.90
43641;DHT22;72791;52.546;13.570;2024-01-11T03:12:00;-6.10;99.90
43641;DHT22;72791;52.546;13.570;2024-01-11T03:14:26;-6.10;99.90
43641;DHT22;72791;52.546;13.570;2024-01-11T03:16:52;-6.10;99.90
43641;DHT22;72791;52.546;13.570;2024-01-11T03:19:17;-6.10;99.90
43641;DHT22;72791;52.546;13.570;2024-01-11T03:21:44;-6.10;99.90
43641;DHT22;72791;52.546;13.570;2024-01-11T03:24:12;-6.10;99.90
43641;DHT22;72791;52.546;13.570;2024-01-11T03:26:45;-6.10;99.90
43641;DHT22;72791;52.546;13.570;2024-01-11T03:29:10;-6.10;99.90
43641;DHT22;72791;52.546;13.570;2024-01-11T03:31:36;-6.10;99.90
43641;DHT22;72791;52.546;13.570;2024-01-11T03:34:03;-6.10;99.90
43641;DHT22;72791;52.546;13.570;2024-01-11T03:36:50;-6.00;99.90
43641;DHT22;72791;52.546;13.570;2024-01-11T03:39:16;-6.00;99.90
43641;DHT22;72791;52.546;13.570;2024-01-11T03:41:44;-6.00;99.90
43641;DHT22;72791;52.546;13.570;2024-01-11T03:44:12;-6.00;99.90
43641;DHT22;72791;52.546;13.570;2024-01-11T03:46:38;-5.90;99.90
43641;DHT22;72791;52.546;13.570;2024-01-11T03:49:05;-5.90;99.90
43641;DHT22;72791;52.546;13.570;2024-01-11T03:51:34;-5.90;99.90
43641;DHT22;72791;52.546;13.570;2024-01-11T03:53:59;-5.90;99.90
43641;DHT22;72791;52.546;13.570;2024-01-11T03:56:25;-5.90;99.90
43641;DHT22;72791;52.546;13.570;2024-01-11T03:58:51;-5.90;99.90
43641;DHT22;72791;52.546;13.570;2024-01-11T04:01:17;-5.80;99.90
43641;DHT22;72791;52.546;13.570;2024-01-11T04:03:46;-5.80;99.90
43641;DHT22;72791;52.546;13.570;2024-01-11T04:06:21;-5.80;99.90
43641;DHT22;72791;52.546;13.570;2024-01-11T04:08:49;-5.80;99.90
43641;DHT22;72791;52.546;13.570;2024-01-11T04:11:16;-5.70;99.90
43641;DHT22;72791;52.546;13.570;2024-01-11T04:13:42;-5.70;99.90
43641;DHT22;72791;52.546;13.570;2024-01-11T04:16:08;-5.70;99.90
43641;DHT22;72791;52.546;13.570;2024-01-11T04:18:35;-5.60;99.90
43641;DHT22;72791;52.546;13.570;2024-01-11T04:21:01;-5.60;99.90
43641;DHT22;72791;52.546;13.570;2024-01-11T04:23:27;-5.60;99.90
43641;DHT22;72791;52.546;13.570;2024-01-11T04:25:53;-5.50;99.90
43641;DHT22;72791;52.546;13.570;2024-01-11T04:28:19;-5.50;99.90
43641;DHT22;72791;52.546;13.570;2024-01-11T04:30:44;-5.50;99.90
43641;DHT22;72791;52.546;13.570;2024-01-11T04:33:11;-5.50;99.90
43641;DHT22;72791;52.546;13.570;2024-01-11T04:35:37;-5.40;99.90
43641;DHT22;72791;52.546;13.570;2024-01-11T04:38:04;-5.40;99.90
43641;DHT22;72791;52.546;13.570;2024-01-11T04:40:29;-5.40;99.90
43641;DHT22;72791;52.546;13.570;2024-01-11T04:42:55;-5.40;99.90
43641;DHT22;72791;52.546;13.570;2024-01-11T04:45:22;-5.30;99.90
43641;DHT22;72791;52.546;13.570;2024-01-11T04:47:51;-5.20;99.90
43641;DHT22;72791;52.546;13.570;2024-01-11T04:50:17;-5.20;99.90
43641;DHT22;72791;52.546;13.570;2024-01-11T04:52:44;-5.20;99.90
43641;DHT22;72791;52.546;13.570;2024-01-11T04:55:10;-5.10;99.90
43641;DHT22;72791;52.546;13.570;2024-01-11T04:57:35;-5.10;99.90
43641;DHT22;72791;52.546;13.570;2024-01-11T05:00:03;-5.00;99.90
43641;DHT22;72791;52.546;13.570;2024-01-11T05:02:28;-5.00;99.90
43641;DHT22;72791;52.546;13.570;2024-01-11T05:04:54;-4.90;99.90
43641;DHT22;72791;52.546;13.570;2024-01-11T05:07:21;-4.90;99.90
43641;DHT22;72791;52.546;13.570;2024-01-11T05:09:48;-4.90;99.90
43641;DHT22;72791;52.546;13.570;2024-01-11T05:12:13;-4.80;99.90
43641;DHT22;72791;52.546;13.570;2024-01-11T05:14:39;-4.80;99.90
43641;DHT22;72791;52.546;13.570;2024-01-11T05:17:05;-4.80;99.90
43641;DHT22;72791;52.546;13.570;2024-01-11T05:19:31;-4.70;99.90
43641;DHT22;72791;52.546;13.570;2024-01-11T05:21:58;-4.70;99.90
43641;DHT22;72791;52.546;13.570;2024-01-11T05:24:26;-4.70;99.90
43641;DHT22;72791;52.546;13.570;2024-01-11T05:26:53;-4.70;99.90
43641;DHT22;72791;52.546;13.570;2024-01-11T05:29:19;-4.70;99.90
43641;DHT22;72791;52.546;13.570;2024-01-11T05:31:46;-4.60;99.90
43641;DHT22;72791;52.546;13.570;2024-01-11T05:34:12;-4.60;99.90
43641;DHT22;72791;52.546;13.570;2024-01-11T05:36:38;-4.60;99.90
43641;DHT22;72791;52.546;13.570;2024-01-11T05:39:04;-4.60;99.90
43641;DHT22;72791;52.546;13.570;2024-01-11T05:41:29;-4.50;99.90
43641;DHT22;72791;52.546;13.570;2024-01-11T05:43:58;-4.50;99.90
43641;DHT22;72791;52.546;13.570;2024-01-11T05:46:27;-4.50;99.90
43641;DHT22;72791;52.546;13.570;2024-01-11T05:48:53;-4.50;99.90
43641;DHT22;72791;52.546;13.570;2024-01-11T05:51:19;-4.50;99.90
43641;DHT22;72791;52.546;13.570;2024-01-11T05:53:47;-4.40;99.90
43641;DHT22;72791;52.546;13.570;2024-01-11T05:56:13;-4.40;99.90
43641;DHT22;72791;52.546;13.570;2024-01-11T05:58:42;-4.30;99.90
43641;DHT22;72791;52.546;13.570;2024-01-11T06:01:09;-4.30;99.90
43641;DHT22;72791;52.546;13.570;2024-01-11T06:03:35;-4.30;99.90
43641;DHT22;72791;52.546;13.570;2024-01-11T06:06:02;-4.20;99.90
43641;DHT22;72791;52.546;13.570;2024-01-11T06:08:31;-4.20;99.90
43641;DHT22;72791;52.546;13.570;2024-01-11T06:11:00;-4.20;99.90
43641;DHT22;72791;52.546;13.570;2024-01-11T06:13:26;-4.20;99.90
43641;DHT22;72791;52.546;13.570;2024-01-11T06:15:52;-4.20;99.90
43641;DHT22;72791;52.546;13.570;2024-01-11T06:18:18;-4.20;99.90
43641;DHT22;72791;52.546;13.570;2024-01-11T06:20:44;-4.20;99.90
43641;DHT22;72791;52.546;13.570;2024-01-11T06:23:10;-4.10;99.90
43641;DHT22;72791;52.546;13.570;2024-01-11T06:25:35;-4.10;99.90
43641;DHT22;72791;52.546;13.570;2024-01-11T06:28:03;-4.10;99.90
43641;DHT22;72791;52.546;13.570;2024-01-11T06:30:29;-4.10;99.90
43641;DHT22;72791;52.546;13.570;2024-01-11T06:32:54;-4.10;99.90
43641;DHT22;72791;52.546;13.570;2024-01-11T06:35:20;-4.00;99.90
43641;DHT22;72791;52.546;13.570;2024-01-11T06:37:46;-3.90;99.90
43641;DHT22;72791;52.546;13.570;2024-01-11T06:40:12;-3.90;99.90
43641;DHT22;72791;52.546;13.570;2024-01-11T06:42:38;-3.80;99.90
43641;DHT22;72791;52.546;13.570;2024-01-11T06:45:05;-3.90;99.90
43641;DHT22;72791;52.546;13.570;2024-01-11T06:47:31;-3.80;99.90
43641;DHT22;72791;52.546;13.570;2024-01-11T06:49:57;-3.80;99.90
43641;DHT22;72791;52.546;13.570;2024-01-11T06:52:22;-3.80;99.90
43641;DHT22;72791;52.546;13.570;2024-01-11T06:54:48;-3.80;99.90
43641;DHT22;72791;52.546;13.570;2024-01-11T06:57:15;-3.70;99.90
43641;DHT22;72791;52.546;13.570;2024-01-11T06:59:40;-3.70;99.90
43641;DHT22;72791;52.546;13.570;2024-01-11T07:02:06;-3.70;99.90
43641;DHT22;72791;52.546;13.570;2024-01-11T07:04:32;-3.70;99.90
43641;DHT22;72791;52.546;13.570;2024-01-11T07:06:57;-3.60;99.90
43641;DHT22;72791;52.546;13.570;2024-01-11T07:09:23;-3.60;99.90
43641;DHT22;72791;52.546;13.570;2024-01-11T07:11:49;-3.60;99.90
43641;DHT22;72791;52.546;13.570;2024-01-11T07:14:16;-3.50;99.90
43641;DHT22;72791;52.546;13.570;2024-01-11T07:16:41;-3.50;99.90
43641;DHT22;72791;52.546;13.570;2024-01-11T07:19:07;-3.50;99.90
43641;DHT22;72791;52.546;13.570;2024-01-11T07:21:33;-3.50;99.90
43641;DHT22;72791;52.546;13.570;2024-01-11T07:23:59;-3.40;99.90
43641;DHT22;72791;52.546;13.570;2024-01-11T07:26:26;-3.40;99.90
43641;DHT22;72791;52.546;13.570;2024-01-11T07:28:55;-3.40;99.90
43641;DHT22;72791;52.546;13.570;2024-01-11T07:31:21;-3.30;99.90
43641;DHT22;72791;52.546;13.570;2024-01-11T07:33:47;-3.30;99.90
43641;DHT22;72791;52.546;13.570;2024-01-11T07:36:13;-3.30;99.90
43641;DHT22;72791;52.546;13.570;2024-01-11T07:38:39;-3.30;99.90
43641;DHT22;72791;52.546;13.570;2024-01-11T07:41:04;-3.20;99.90
43641;DHT22;72791;52.546;13.570;2024-01-11T07:43:31;-3.20;99.90
43641;DHT22;72791;52.546;13.570;2024-01-11T07:46:01;-3.10;99.90
43641;DHT22;72791;52.546;13.570;2024-01-11T07:48:30;-3.10;99.90
43641;DHT22;72791;52.546;13.570;2024-01-11T07:50:58;-3.00;99.90
43641;DHT22;72791;52.546;13.570;2024-01-11T07:53:24;-3.00;99.90
43641;DHT22;72791;52.546;13.570;2024-01-11T07:55:53;-3.00;99.90
43641;DHT22;72791;52.546;13.570;2024-01-11T07:58:19;-3.00;99.90
43641;DHT22;72791;52.546;13.570;2024-01-11T08:00:47;-2.90;99.90
43641;DHT22;72791;52.546;13.570;2024-01-11T08:03:15;-2.90;99.90
43641;DHT22;72791;52.546;13.570;2024-01-11T08:05:41;-2.90;99.90
43641;DHT22;72791;52.546;13.570;2024-01-11T08:08:09;-2.90;99.90
43641;DHT22;72791;52.546;13.570;2024-01-11T08:10:38;-2.80;99.90
43641;DHT22;72791;52.546;13.570;2024-01-11T08:13:04;-2.80;99.90
43641;DHT22;72791;52.546;13.570;2024-01-11T08:15:30;-2.80;99.90
43641;DHT22;72791;52.546;13.570;2024-01-11T08:17:57;-2.80;99.90
43641;DHT22;72791;52.546;13.570;2024-01-11T08:20:23;-2.80;99.90
43641;DHT22;72791;52.546;13.570;2024-01-11T08:22:49;-2.70;99.90
43641;DHT22;72791;52.546;13.570;2024-01-11T08:25:16;-2.70;99.90
43641;DHT22;72791;52.546;13.570;2024-01-11T08:27:41;-2.70;99.90
43641;DHT22;72791;52.546;13.570;2024-01-11T08:30:07;-2.70;99.90
43641;DHT22;72791;52.546;13.570;2024-01-11T08:32:33;-2.60;99.90
43641;DHT22;72791;52.546;13.570;2024-01-11T08:35:05;-2.60;99.90
43641;DHT22;72791;52.546;13.570;2024-01-11T08:37:32;-2.50;99.90
43641;DHT22;72791;52.546;13.570;2024-01-11T08:39:59;-2.50;99.90
43641;DHT22;72791;52.546;13.570;2024-01-11T08:42:24;-2.50;99.90
43641;DHT22;72791;52.546;13.570;2024-01-11T08:44:52;-2.40;99.90
43641;DHT22;72791;52.546;13.570;2024-01-11T08:47:18;-2.40;99.90
43641;DHT22;72791;52.546;13.570;2024-01-11T08:49:44;-2.40;99.90
43641;DHT22;72791;52.546;13.570;2024-01-11T08:52:10;-2.40;99.90
43641;DHT22;72791;52.546;13.570;2024-01-11T08:54:36;-2.30;99.90
43641;DHT22;72791;52.546;13.570;2024-01-11T08:57:02;-2.30;99.90
43641;DHT22;72791;52.546;13.570;2024-01-11T08:59:28;-2.30;99.90
43641;DHT22;72791;52.546;13.570;2024-01-11T09:01:54;-2.30;99.90
43641;DHT22;72791;52.546;13.570;2024-01-11T09:04:21;-2.20;99.90
43641;DHT22;72791;52.546;13.570;2024-01-11T09:06:48;-2.00;99.90
43641;DHT22;72791;52.546;13.570;2024-01-11T09:09:14;-1.90;99.90
43641;DHT22;72791;52.546;13.570;2024-01-11T09:11:41;-1.90;99.90
43641;DHT22;72791;52.546;13.570;2024-01-11T09:14:07;-1.80;99.90
43641;DHT22;72791;52.546;13.570;2024-01-11T09:16:33;-1.80;99.90
43641;DHT22;72791;52.546;13.570;2024-01-11T09:18:59;-1.80;99.90
43641;DHT22;72791;52.546;13.570;2024-01-11T09:21:27;-1.80;99.90
43641;DHT22;72791;52.546;13.570;2024-01-11T09:23:55;-1.80;99.90
43641;DHT22;72791;52.546;13.570;2024-01-11T09:26:20;-1.70;99.90
43641;DHT22;72791;52.546;13.570;2024-01-11T09:28:48;-1.60;99.90
43641;DHT22;72791;52.546;13.570;2024-01-11T09:31:16;-1.60;99.90
43641;DHT22;72791;52.546;13.570;2024-01-11T09:33:42;-1.50;99.90
43641;DHT22;72791;52.546;13.570;2024-01-11T09:36:11;-1.50;99.90
43641;DHT22;72791;52.546;13.570;2024-01-11T09:38:38;-1.50;99.90
43641;DHT22;72791;52.546;13.570;2024-01-11T09:41:09;-1.50;99.90
43641;DHT22;72791;52.546;13.570;2024-01-11T09:43:40;-1.50;99.90
43641;DHT22;72791;52.546;13.570;2024-01-11T09:46:06;-1.50;99.90
43641;DHT22;72791;52.546;13.570;2024-01-11T09:48:38;-1.50;99.90
43641;DHT22;72791;52.546;13.570;2024-01-11T09:51:06;-1.60;99.90
43641;DHT22;72791;52.546;13.570;2024-01-11T09:53:35;-1.60;99.90
43641;DHT22;72791;52.546;13.570;2024-01-11T09:56:08;-1.60;99.90
43641;DHT22;72791;52.546;13.570;2024-01-11T09:58:41;-1.60;99.90
43641;DHT22;72791;52.546;13.570;2024-01-11T10:01:10;-1.60;99.90
43641;DHT22;72791;52.546;13.570;2024-01-11T10:03:39;-1.50;99.90
43641;DHT22;72791;52.546;13.570;2024-01-11T10:06:07;-1.40;99.90
43641;DHT22;72791;52.546;13.570;2024-01-11T10:08:36;-1.30;99.90
43641;DHT22;72791;52.546;13.570;2024-01-11T10:11:03;-1.30;99.90
43641;DHT22;72791;52.546;13.570;2024-01-11T10:13:30;-1.40;99.90
43641;DHT22;72791;52.546;13.570;2024-01-11T10:16:18;-1.40;99.90
43641;DHT22;72791;52.546;13.570;2024-01-11T10:18:44;-1.30;99.90
43641;DHT22;72791;52.546;13.570;2024-01-11T10:21:11;-1.30;99.90
43641;DHT22;72791;52.546;13.570;2024-01-11T10:23:37;-1.30;99.90
43641;DHT22;72791;52.546;13.570;2024-01-11T10:26:04;-1.30;99.90
43641;DHT22;72791;52.546;13.570;2024-01-11T10:28:30;-1.30;99.90
43641;DHT22;72791;52.546;13.570;2024-01-11T10:30:56;-1.30;99.90
43641;DHT22;72791;52.546;13.570;2024-01-11T10:33:22;-1.30;99.90
43641;DHT22;72791;52.546;13.570;2024-01-11T10:35:49;-1.30;99.90
43641;DHT22;72791;52.546;13.570;2024-01-11T10:38:16;-1.30;99.90
43641;DHT22;72791;52.546;13.570;2024-01-11T10:40:42;-1.30;99.90
43641;DHT22;72791;52.546;13.570;2024-01-11T10:43:10;-1.30;99.90
43641;DHT22;72791;52.546;13.570;2024-01-11T10:45:41;-1.20;99.90
43641;DHT22;72791;52.546;13.570;2024-01-11T10:48:16;-1.10;99.90
43641;DHT22;72791;52.546;13.570;2024-01-11T10:50:44;-1.10;99.90
43641;DHT22;72791;52.546;13.570;2024-01-11T10:56:03;-1.00;99.90
43641;DHT22;72791;52.546;13.570;2024-01-11T10:58:30;-1.00;99.90
43641;DHT22;72791;52.546;13.570;2024-01-11T11:00:57;-1.00;99.90
43641;DHT22;72791;52.546;13.570;2024-01-11T11:03:25;-1.00;99.90
43641;DHT22;72791;52.546;13.570;2024-01-11T11:05:54;-1.00;99.90
43641;DHT22;72791;52.546;13.570;2024-01-11T11:08:23;-0.90;99.90
43641;DHT22;72791;52.546;13.570;2024-01-11T11:10:59;-1.00;99.90
43641;DHT22;72791;52.546;13.570;2024-01-11T11:13:28;-1.10;99.90
43641;DHT22;72791;52.546;13.570;2024-01-11T11:15:54;-1.10;99.90
43641;DHT22;72791;52.546;13.570;2024-01-11T11:18:23;-1.10;99.90
43641;DHT22;72791;52.546;13.570;2024-01-11T11:20:50;-1.20;99.90
43641;DHT22;72791;52.546;13.570;2024-01-11T11:23:18;-1.20;99.90
43641;DHT22;72791;52.546;13.570;2024-01-11T11:25:46;-1.10;99.90
43641;DHT22;72791;52.546;13.570;2024-01-11T11:28:12;-1.10;99.90
43641;DHT22;72791;52.546;13.570;2024-01-11T11:30:41;-1.10;99.90
43641;DHT22;72791;52.546;13.570;2024-01-11T11:33:22;-1.10;99.90
43641;DHT22;72791;52.546;13.570;2024-01-11T11:35:52;-1.10;99.90
43641;DHT22;72791;52.546;13.570;2024-01-11T11:38:25;-1.10;99.90
43641;DHT22;72791;52.546;13.570;2024-01-11T11:40:53;-1.10;99.90
43641;DHT22;72791;52.546;13.570;2024-01-11T11:43:20;-1.00;99.90
43641;DHT22;72791;52.546;13.570;2024-01-11T11:45:49;-1.00;99.90
43641;DHT22;72791;52.546;13.570;2024-01-11T11:53:33;-0.90;99.90
43641;DHT22;72791;52.546;13.570;2024-01-11T11:56:01;-0.80;99.90
43641;DHT22;72791;52.546;13.570;2024-01-11T11:58:31;-0.80;99.90
43641;DHT22;72791;52.546;13.570;2024-01-11T12:00:59;-0.80;99.90
43641;DHT22;72791;52.546;13.570;2024-01-11T12:03:35;-0.80;99.90
43641;DHT22;72791;52.546;13.570;2024-01-11T12:06:04;-0.80;99.90
43641;DHT22;72791;52.546;13.570;2024-01-11T12:08:30;-0.70;99.90
43641;DHT22;72791;52.546;13.570;2024-01-11T12:10:56;-0.70;99.90
43641;DHT22;72791;52.546;13.570;2024-01-11T12:13:24;-0.70;99.90
43641;DHT22;72791;52.546;13.570;2024-01-11T12:15:50;-0.70;99.90
43641;DHT22;72791;52.546;13.570;2024-01-11T12:18:16;-0.70;99.90
43641;DHT22;72791;52.546;13.570;2024-01-11T12:20:44;-0.60;99.90
43641;DHT22;72791;52.546;13.570;2024-01-11T12:23:11;-0.60;99.90
43641;DHT22;72791;52.546;13.570;2024-01-11T12:25:42;-0.60;99.90
43641;DHT22;72791;52.546;13.570;2024-01-11T12:28:08;-0.60;99.90
43641;DHT22;72791;52.546;13.570;2024-01-11T12:30:34;-0.60;99.90
43641;DHT22;72791;52.546;13.570;2024-01-11T12:33:01;-0.60;99.90
43641;DHT22;72791;52.546;13.570;2024-01-11T12:35:29;-0.60;99.90
43641;DHT22;72791;52.546;13.570;2024-01-11T12:38:01;-0.60;99.90
43641;DHT22;72791;52.546;13.570;2024-01-11T12:40:27;-0.60;99.90
43641;DHT22;72791;52.546;13.570;2024-01-11T12:42:53;-0.50;99.90
43641;DHT22;72791;52.546;13.570;2024-01-11T12:45:20;-0.50;99.90
43641;DHT22;72791;52.546;13.570;2024-01-11T12:47:46;-0.50;99.90
43641;DHT22;72791;52.546;13.570;2024-01-11T12:50:12;-0.50;99.90
43641;DHT22;72791;52.546;13.570;2024-01-11T12:52:40;-0.50;99.90
43641;DHT22;72791;52.546;13.570;2024-01-11T12:55:20;-0.40;99.90
43641;DHT22;72791;52.546;13.570;2024-01-11T12:57:46;-0.30;99.90
43641;DHT22;72791;52.546;13.570;2024-01-11T13:00:15;-0.30;99.90
43641;DHT22;72791;52.546;13.570;2024-01-11T13:02:42;-0.20;99.90
43641;DHT22;72791;52.546;13.570;2024-01-11T13:05:13;-0.20;99.90
43641;DHT22;72791;52.546;13.570;2024-01-11T13:07:46;-0.20;99.90
43641;DHT22;72791;52.546;13.570;2024-01-11T13:10:13;-0.10;99.90
43641;DHT22;72791;52.546;13.570;2024-01-11T13:12:40;-0.10;99.90
43641;DHT22;72791;52.546;13.570;2024-01-11T13:15:06;0.00;99.90
43641;DHT22;72791;52.546;13.570;2024-01-11T13:17:32;0.00;99.90
43641;DHT22;72791;52.546;13.570;2024-01-11T13:19:58;0.00;99.90
43641;DHT22;72791;52.546;13.570;2024-01-11T13:22:24;0.10;99.90
43641;DHT22;72791;52.546;13.570;2024-01-11T13:24:50;0.10;99.90
43641;DHT22;72791;52.546;13.570;2024-01-11T13:27:17;0.10;99.90
43641;DHT22;72791;52.546;13.570;2024-01-11T13:29:44;0.10;99.90
43641;DHT22;72791;52.546;13.570;2024-01-11T13:32:12;0.10;99.90
43641;DHT22;72791;52.546;13.570;2024-01-11T13:34:39;0.10;99.90
43641;DHT22;72791;52.546;13.570;2024-01-11T13:37:06;0.10;99.90
43641;DHT22;72791;52.546;13.570;2024-01-11T13:39:33;0.10;99.90
43641;DHT22;72791;52.546;13.570;2024-01-11T13:41:59;0.10;99.90
43641;DHT22;72791;52.546;13.570;2024-01-11T13:44:24;0.10;99.90
43641;DHT22;72791;52.546;13.570;2024-01-11T13:46:52;0.00;99.90
43641;DHT22;72791;52.546;13.570;2024-01-11T13:49:18;0.00;99.90
43641;DHT22;72791;52.546;13.570;2024-01-11T13:51:44;0.00;99.90
43641;DHT22;72791;52.546;13.570;2024-01-11T13:54:11;0.00;99.90
43641;DHT22;72791;52.546;13.570;2024-01-11T13:56:36;0.00;99.90
43641;DHT22;72791;52.546;13.570;2024-01-11T13:59:02;0.00;99.90
43641;DHT22;72791;52.546;13.570;2024-01-11T14:01:28;-0.10;99.90
43641;DHT22;72791;52.546;13.570;2024-01-11T14:03:53;-0.10;99.90
43641;DHT22;72791;52.546;13.570;2024-01-11T14:06:19;-0.10;99.90
43641;DHT22;72791;52.546;13.570;2024-01-11T14:08:47;-0.20;99.90
43641;DHT22;72791;52.546;13.570;2024-01-11T14:11:13;-0.20;99.90
43641;DHT22;72791;52.546;13.570;2024-01-11T14:13:39;-0.30;99.90
43641;DHT22;72791;52.546;13.570;2024-01-11T14:16:07;-0.30;99.90
43641;DHT22;72791;52.546;13.570;2024-01-11T14:18:37;-0.30;99.90
43641;DHT22;72791;52.546;13.570;2024-01-11T14:21:02;-0.30;99.90
43641;DHT22;72791;52.546;13.570;2024-01-11T14:23:28;-0.30;99.90
43641;DHT22;72791;52.546;13.570;2024-01-11T14:25:54;-0.30;99.90
43641;DHT22;72791;52.546;13.570;2024-01-11T14:28:22;-0.30;99.90
43641;DHT22;72791;52.546;13.570;2024-01-11T14:30:48;-0.30;99.90
43641;DHT22;72791;52.546;13.570;2024-01-11T14:33:14;-0.30;99.90
43641;DHT22;72791;52.546;13.570;2024-01-11T14:35:39;-0.40;99.90
43641;DHT22;72791;52.546;13.570;2024-01-11T14:38:43;-0.40;99.90
43641;DHT22;72791;52.546;13.570;2024-01-11T14:41:09;-0.40;99.90
43641;DHT22;72791;52.546;13.570;2024-01-11T14:43:37;-0.50;99.90
43641;DHT22;72791;52.546;13.570;2024-01-11T14:46:06;-0.40;99.90
43641;DHT22;72791;52.546;13.570;2024-01-11T14:48:35;-0.50;99.90
43641;DHT22;72791;52.546;13.570;2024-01-11T14:51:03;-0.50;99.90
43641;DHT22;72791;52.546;13.570;2024-01-11T14:53:31;-0.50;99.90
43641;DHT22;72791;52.546;13.570;2024-01-11T14:55:57;-0.40;99.90
43641;DHT22;72791;52.546;13.570;2024-01-11T14:58:24;-0.50;99.90
43641;DHT22;72791;52.546;13.570;2024-01-11T15:00:50;-0.50;99.90
43641;DHT22;72791;52.546;13.570;2024-01-11T15:03:17;-0.50;99.90
43641;DHT22;72791;52.546;13.570;2024-01-11T15:05:47;-0.50;99.90
43641;DHT22;72791;52.546;13.570;2024-01-11T15:08:13;-0.50;99.90
43641;DHT22;72791;52.546;13.570;2024-01-11T15:10:39;-0.50;99.90
43641;DHT22;72791;52.546;13.570;2024-01-11T15:13:06;-0.50;99.90
43641;DHT22;72791;52.546;13.570;2024-01-11T15:15:32;-0.50;99.90
43641;DHT22;72791;52.546;13.570;2024-01-11T15:17:58;-0.50;99.90
43641;DHT22;72791;52.546;13.570;2024-01-11T15:20:23;-0.50;99.90
43641;DHT22;72791;52.546;13.570;2024-01-11T15:22:50;-0.50;99.90
43641;DHT22;72791;52.546;13.570;2024-01-11T15:25:16;-0.50;99.90
43641;DHT22;72791;52.546;13.570;2024-01-11T15:27:44;-0.50;99.90
43641;DHT22;72791;52.546;13.570;2024-01-11T15:30:10;-0.50;99.90